sensor_id;sensor_type;location;lat;lon;timestamp;P1;durP1;ratioP1;P2;durP2;ratioP2
40621;SDS011;26324;52.040;11.528;2023-03-01T00:01:39;8.23;;;2.92;;
40621;SDS011;26324;52.040;11.528;2023-03-01T00:04:07;6.90;;;2.13;;
40621;SDS011;26324;52.040;11.528;2023-03-01T00:06:35;13.10;;;2.05;;
40621;SDS011;26324;52.040;11.528;2023-03-01T00:09:02;3.05;;;1.25;;
40621;SDS011;26324;52.040;11.528;2023-03-01T00:11:31;2.45;;;0.82;;
40621;SDS011;26324;52.040;11.528;2023-03-01T00:14:00;1.98;;;1.05;;
40621;SDS011;26324;52.040;11.528;2023-03-01T00:16:29;2.70;;;1.42;;
40621;SDS011;26324;52.040;11.528;2023-03-01T00:18:58;1.90;;;0.57;;
40621;SDS011;26324;52.040;11.528;2023-03-01T00:21:25;12.40;;;3.17;;
40621;SDS011;26324;52.040;11.528;2023-03-01T00:23:54;3.22;;;1.58;;
40621;SDS011;26324;52.040;11.528;2023-03-01T00:26:22;3.67;;;0.95;;
40621;SDS011;26324;52.040;11.528;2023-03-01T00:28:50;1.63;;;0.93;;
40621;SDS011;26324;52.040;11.528;2023-03-01T00:31:19;3.85;;;0.75;;
40621;SDS011;26324;52.040;11.528;2023-03-01T00:33:54;1.75;;;1.05;;
40621;SDS011;26324;52.040;11.528;2023-03-01T00:36:26;1.35;;;1.25;;
40621;SDS011;26324;52.040;11.528;2023-03-01T00:38:59;0.82;;;0.43;;
40621;SDS011;26324;52.040;11.528;2023-03-01T00:41:27;2.72;;;0.90;;
40621;SDS011;26324;52.040;11.528;2023-03-01T00:43:54;1.60;;;1.25;;
40621;SDS011;26324;52.040;11.528;2023-03-01T00:46:23;0.70;;;0.35;;
40621;SDS011;26324;52.040;11.528;2023-03-01T00:48:53;0.65;;;0.65;;
40621;SDS011;26324;52.040;11.528;2023-03-01T00:51:22;1.85;;;0.45;;
40621;SDS011;26324;52.040;11.528;2023-03-01T00:53:53;2.15;;;0.85;;
40621;SDS011;26324;52.040;11.528;2023-03-01T00:56:21;0.43;;;0.30;;
40621;SDS011;26324;52.040;11.528;2023-03-01T00:58:49;2.53;;;0.60;;
40621;SDS011;26324;52.040;11.528;2023-03-01T01:01:20;0.63;;;0.40;;
40621;SDS011;26324;52.040;11.528;2023-03-01T01:03:50;2.30;;;0.88;;
40621;SDS011;26324;52.040;11.528;2023-03-01T01:06:23;1.77;;;1.48;;
40621;SDS011;26324;52.040;11.528;2023-03-01T01:08:56;4.43;;;1.45;;
40621;SDS011;26324;52.040;11.528;2023-03-01T01:11:24;1.90;;;0.93;;
40621;SDS011;26324;52.040;11.528;2023-03-01T01:13:54;1.00;;;0.52;;
40621;SDS011;26324;52.040;11.528;2023-03-01T01:16:23;1.02;;;0.70;;
40621;SDS011;26324;52.040;11.528;2023-03-01T01:18:52;2.28;;;1.00;;
40621;SDS011;26324;52.040;11.528;2023-03-01T01:21:21;0.52;;;0.45;;
40621;SDS011;26324;52.040;11.528;2023-03-01T01:23:50;1.90;;;0.65;;
40621;SDS011;26324;52.040;11.528;2023-03-01T01:26:19;3.13;;;1.00;;
40621;SDS011;26324;52.040;11.528;2023-03-01T01:28:49;0.52;;;0.52;;
40621;SDS011;26324;52.040;11.528;2023-03-01T01:31:17;0.68;;;0.60;;
40621;SDS011;26324;52.040;11.528;2023-03-01T01:33:45;0.65;;;0.40;;
40621;SDS011;26324;52.040;11.528;2023-03-01T01:36:13;0.77;;;0.77;;
40621;SDS011;26324;52.040;11.528;2023-03-01T01:38:40;1.17;;;0.75;;
40621;SDS011;26324;52.040;11.528;2023-03-01T01:41:09;1.00;;;0.68;;
40621;SDS011;26324;52.040;11.528;2023-03-01T01:43:41;1.70;;;0.98;;
40621;SDS011;26324;52.040;11.528;2023-03-01T01:46:30;1.58;;;1.02;;
40621;SDS011;26324;52.040;11.528;2023-03-01T01:49:00;0.70;;;0.70;;
40621;SDS011;26324;52.040;11.528;2023-03-01T01:51:35;0.85;;;0.60;;
40621;SDS011;26324;52.040;11.528;2023-03-01T01:54:12;1.33;;;0.80;;
40621;SDS011;26324;52.040;11.528;2023-03-01T01:56:44;4.03;;;1.05;;
40621;SDS011;26324;52.040;11.528;2023-03-01T01:59:17;0.63;;;0.40;;
40621;SDS011;26324;52.040;11.528;2023-03-01T02:01:44;1.95;;;0.70;;
40621;SDS011;26324;52.040;11.528;2023-03-01T02:04:11;1.17;;;0.93;;
40621;SDS011;26324;52.040;11.528;2023-03-01T02:06:41;1.90;;;1.10;;
40621;SDS011;26324;52.040;11.528;2023-03-01T02:09:18;1.23;;;0.73;;
40621;SDS011;26324;52.040;11.528;2023-03-01T02:11:48;1.25;;;0.88;;
40621;SDS011;26324;52.040;11.528;2023-03-01T02:14:17;0.60;;;0.38;;
40621;SDS011;26324;52.040;11.528;2023-03-01T02:16:45;4.03;;;0.57;;
40621;SDS011;26324;52.040;11.528;2023-03-01T02:19:15;1.73;;;0.82;;
40621;SDS011;26324;52.040;11.528;2023-03-01T02:22:00;0.68;;;0.45;;
40621;SDS011;26324;52.040;11.528;2023-03-01T02:24:40;0.82;;;0.63;;
40621;SDS011;26324;52.040;11.528;2023-03-01T02:27:29;0.63;;;0.55;;
40621;SDS011;26324;52.040;11.528;2023-03-01T02:30:08;0.82;;;0.68;;
40621;SDS011;26324;52.040;11.528;2023-03-01T02:32:39;2.28;;;0.95;;
40621;SDS011;26324;52.040;11.528;2023-03-01T02:35:09;1.75;;;1.30;;
40621;SDS011;26324;52.040;11.528;2023-03-01T02:37:40;3.33;;;1.13;;
40621;SDS011;26324;52.040;11.528;2023-03-01T02:40:10;2.13;;;0.88;;
40621;SDS011;26324;52.040;11.528;2023-03-01T02:42:52;0.80;;;0.80;;
40621;SDS011;26324;52.040;11.528;2023-03-01T02:45:22;3.40;;;0.75;;
40621;SDS011;26324;52.040;11.528;2023-03-01T02:47:50;0.65;;;0.50;;
40621;SDS011;26324;52.040;11.528;2023-03-01T02:52:59;0.75;;;0.75;;
40621;SDS011;26324;52.040;11.528;2023-03-01T02:55:34;1.38;;;0.80;;
40621;SDS011;26324;52.040;11.528;2023-03-01T02:58:02;1.08;;;0.75;;
40621;SDS011;26324;52.040;11.528;2023-03-01T03:00:39;1.48;;;1.05;;
40621;SDS011;26324;52.040;11.528;2023-03-01T03:03:19;0.70;;;0.30;;
40621;SDS011;26324;52.040;11.528;2023-03-01T03:05:47;8.80;;;1.05;;
40621;SDS011;26324;52.040;11.528;2023-03-01T03:08:15;2.33;;;0.88;;
40621;SDS011;26324;52.040;11.528;2023-03-01T03:10:51;1.95;;;0.77;;
40621;SDS011;26324;52.040;11.528;2023-03-01T03:13:19;1.58;;;0.88;;
40621;SDS011;26324;52.040;11.528;2023-03-01T03:15:49;1.85;;;0.93;;
40621;SDS011;26324;52.040;11.528;2023-03-01T03:18:16;0.40;;;0.40;;
40621;SDS011;26324;52.040;11.528;2023-03-01T03:20:44;5.53;;;0.77;;
40621;SDS011;26324;52.040;11.528;2023-03-01T03:23:12;1.55;;;0.77;;
40621;SDS011;26324;52.040;11.528;2023-03-01T03:25:40;0.80;;;0.80;;
40621;SDS011;26324;52.040;11.528;2023-03-01T03:28:07;0.50;;;0.50;;
40621;SDS011;26324;52.040;11.528;2023-03-01T03:30:38;0.38;;;0.25;;
40621;SDS011;26324;52.040;11.528;2023-03-01T03:33:08;1.48;;;0.60;;
40621;SDS011;26324;52.040;11.528;2023-03-01T03:35:40;0.43;;;0.43;;
40621;SDS011;26324;52.040;11.528;2023-03-01T03:38:10;3.25;;;0.85;;
40621;SDS011;26324;52.040;11.528;2023-03-01T03:40:46;1.77;;;0.70;;
40621;SDS011;26324;52.040;11.528;2023-03-01T03:43:17;0.50;;;0.40;;
40621;SDS011;26324;52.040;11.528;2023-03-01T03:45:46;5.70;;;1.83;;
40621;SDS011;26324;52.040;11.528;2023-03-01T03:48:15;1.08;;;0.98;;
40621;SDS011;26324;52.040;11.528;2023-03-01T03:50:47;1.60;;;0.77;;
40621;SDS011;26324;52.040;11.528;2023-03-01T03:53:16;2.50;;;1.40;;
40621;SDS011;26324;52.040;11.528;2023-03-01T03:55:43;1.75;;;1.38;;
40621;SDS011;26324;52.040;11.528;2023-03-01T03:58:11;0.80;;;0.38;;
40621;SDS011;26324;52.040;11.528;2023-03-01T04:00:40;0.85;;;0.47;;
40621;SDS011;26324;52.040;11.528;2023-03-01T04:03:09;4.75;;;0.50;;
40621;SDS011;26324;52.040;11.528;2023-03-01T04:05:37;1.42;;;1.13;;
40621;SDS011;26324;52.040;11.528;2023-03-01T04:08:06;0.00;;;0.00;;
40621;SDS011;26324;52.040;11.528;2023-03-01T04:10:37;0.28;;;0.28;;
40621;SDS011;26324;52.040;11.528;2023-03-01T04:13:09;3.15;;;1.20;;
40621;SDS011;26324;52.040;11.528;2023-03-01T04:15:39;1.17;;;0.98;;
40621;SDS011;26324;52.040;11.528;2023-03-01T04:18:14;0.52;;;0.35;;
40621;SDS011;26324;52.040;11.528;2023-03-01T04:20:42;0.73;;;0.60;;
40621;SDS011;26324;52.040;11.528;2023-03-01T04:23:19;3.20;;;0.85;;
40621;SDS011;26324;52.040;11.528;2023-03-01T04:25:57;1.88;;;1.17;;
40621;SDS011;26324;52.040;11.528;2023-03-01T04:28:29;0.88;;;0.88;;
40621;SDS011;26324;52.040;11.528;2023-03-01T04:31:11;2.72;;;1.45;;
40621;SDS011;26324;52.040;11.528;2023-03-01T04:33:45;0.55;;;0.45;;
40621;SDS011;26324;52.040;11.528;2023-03-01T04:36:17;2.05;;;0.82;;
40621;SDS011;26324;52.040;11.528;2023-03-01T04:38:45;1.23;;;0.80;;
40621;SDS011;26324;52.040;11.528;2023-03-01T04:41:16;4.25;;;1.27;;
40621;SDS011;26324;52.040;11.528;2023-03-01T04:43:46;1.58;;;0.80;;
40621;SDS011;26324;52.040;11.528;2023-03-01T04:46:14;2.25;;;0.75;;
40621;SDS011;26324;52.040;11.528;2023-03-01T04:51:11;0.98;;;0.68;;
40621;SDS011;26324;52.040;11.528;2023-03-01T04:53:41;0.13;;;0.13;;
40621;SDS011;26324;52.040;11.528;2023-03-01T04:56:09;0.57;;;0.25;;
40621;SDS011;26324;52.040;11.528;2023-03-01T04:58:37;5.47;;;1.17;;
40621;SDS011;26324;52.040;11.528;2023-03-01T05:01:10;5.70;;;1.30;;
40621;SDS011;26324;52.040;11.528;2023-03-01T05:03:46;4.45;;;0.98;;
40621;SDS011;26324;52.040;11.528;2023-03-01T05:06:15;1.50;;;1.30;;
40621;SDS011;26324;52.040;11.528;2023-03-01T05:08:43;3.75;;;1.02;;
40621;SDS011;26324;52.040;11.528;2023-03-01T05:11:12;1.92;;;1.30;;
40621;SDS011;26324;52.040;11.528;2023-03-01T05:13:40;1.77;;;0.85;;
40621;SDS011;26324;52.040;11.528;2023-03-01T05:16:08;1.67;;;1.10;;
40621;SDS011;26324;52.040;11.528;2023-03-01T05:18:39;0.80;;;0.80;;
40621;SDS011;26324;52.040;11.528;2023-03-01T05:21:13;8.05;;;2.58;;
40621;SDS011;26324;52.040;11.528;2023-03-01T05:23:44;5.03;;;1.58;;
40621;SDS011;26324;52.040;11.528;2023-03-01T05:26:11;8.13;;;1.20;;
40621;SDS011;26324;52.040;11.528;2023-03-01T05:28:54;8.02;;;1.42;;
40621;SDS011;26324;52.040;11.528;2023-03-01T05:31:25;2.03;;;0.98;;
40621;SDS011;26324;52.040;11.528;2023-03-01T05:33:52;12.00;;;2.30;;
40621;SDS011;26324;52.040;11.528;2023-03-01T05:36:19;2.13;;;1.70;;
40621;SDS011;26324;52.040;11.528;2023-03-01T05:38:47;5.75;;;2.25;;
40621;SDS011;26324;52.040;11.528;2023-03-01T05:41:14;5.85;;;1.75;;
40621;SDS011;26324;52.040;11.528;2023-03-01T05:43:46;2.75;;;0.85;;
40621;SDS011;26324;52.040;11.528;2023-03-01T05:46:13;1.58;;;1.40;;
40621;SDS011;26324;52.040;11.528;2023-03-01T05:48:42;1.35;;;1.23;;
40621;SDS011;26324;52.040;11.528;2023-03-01T05:51:15;9.07;;;2.15;;
40621;SDS011;26324;52.040;11.528;2023-03-01T05:53:44;5.00;;;3.05;;
40621;SDS011;26324;52.040;11.528;2023-03-01T05:56:11;2.65;;;1.60;;
40621;SDS011;26324;52.040;11.528;2023-03-01T05:58:39;2.05;;;1.48;;
40621;SDS011;26324;52.040;11.528;2023-03-01T06:01:10;1.17;;;1.08;;
40621;SDS011;26324;52.040;11.528;2023-03-01T06:03:39;1.65;;;0.90;;
40621;SDS011;26324;52.040;11.528;2023-03-01T06:06:07;3.03;;;1.13;;
40621;SDS011;26324;52.040;11.528;2023-03-01T06:08:35;3.58;;;1.80;;
40621;SDS011;26324;52.040;11.528;2023-03-01T06:11:02;5.70;;;1.05;;
40621;SDS011;26324;52.040;11.528;2023-03-01T06:13:31;2.40;;;1.10;;
40621;SDS011;26324;52.040;11.528;2023-03-01T06:16:05;2.38;;;0.63;;
40621;SDS011;26324;52.040;11.528;2023-03-01T06:18:33;4.05;;;0.77;;
40621;SDS011;26324;52.040;11.528;2023-03-01T06:21:01;6.82;;;2.10;;
40621;SDS011;26324;52.040;11.528;2023-03-01T06:23:28;7.72;;;2.17;;
40621;SDS011;26324;52.040;11.528;2023-03-01T06:25:58;7.82;;;2.10;;
40621;SDS011;26324;52.040;11.528;2023-03-01T06:28:29;4.93;;;2.08;;
40621;SDS011;26324;52.040;11.528;2023-03-01T06:30:57;2.08;;;1.38;;
40621;SDS011;26324;52.040;11.528;2023-03-01T06:33:24;0.95;;;0.63;;
40621;SDS011;26324;52.040;11.528;2023-03-01T06:35:56;6.50;;;2.10;;
40621;SDS011;26324;52.040;11.528;2023-03-01T06:38:24;1.52;;;0.93;;
40621;SDS011;26324;52.040;11.528;2023-03-01T06:40:52;2.78;;;1.27;;
40621;SDS011;26324;52.040;11.528;2023-03-01T06:43:23;2.05;;;1.25;;
40621;SDS011;26324;52.040;11.528;2023-03-01T06:45:51;0.20;;;0.20;;
40621;SDS011;26324;52.040;11.528;2023-03-01T06:48:18;5.30;;;2.03;;
40621;SDS011;26324;52.040;11.528;2023-03-01T06:50:46;1.95;;;0.40;;
40621;SDS011;26324;52.040;11.528;2023-03-01T06:53:14;2.55;;;1.75;;
40621;SDS011;26324;52.040;11.528;2023-03-01T06:55:41;14.77;;;2.45;;
40621;SDS011;26324;52.040;11.528;2023-03-01T06:58:08;18.33;;;2.80;;
40621;SDS011;26324;52.040;11.528;2023-03-01T07:00:36;2.63;;;1.40;;
40621;SDS011;26324;52.040;11.528;2023-03-01T07:03:03;4.10;;;1.40;;
40621;SDS011;26324;52.040;11.528;2023-03-01T07:05:32;1.77;;;0.93;;
40621;SDS011;26324;52.040;11.528;2023-03-01T07:08:00;0.52;;;0.52;;
40621;SDS011;26324;52.040;11.528;2023-03-01T07:10:27;7.28;;;1.23;;
40621;SDS011;26324;52.040;11.528;2023-03-01T07:12:55;0.45;;;0.35;;
40621;SDS011;26324;52.040;11.528;2023-03-01T07:15:24;1.67;;;0.93;;
40621;SDS011;26324;52.040;11.528;2023-03-01T07:17:53;3.55;;;1.75;;
40621;SDS011;26324;52.040;11.528;2023-03-01T07:20:20;1.15;;;1.00;;
40621;SDS011;26324;52.040;11.528;2023-03-01T07:22:51;1.45;;;1.25;;
40621;SDS011;26324;52.040;11.528;2023-03-01T07:25:19;3.63;;;1.42;;
40621;SDS011;26324;52.040;11.528;2023-03-01T07:27:53;9.50;;;2.17;;
40621;SDS011;26324;52.040;11.528;2023-03-01T07:30:21;1.85;;;0.88;;
40621;SDS011;26324;52.040;11.528;2023-03-01T07:32:48;4.40;;;1.88;;
40621;SDS011;26324;52.040;11.528;2023-03-01T07:35:16;1.70;;;0.90;;
40621;SDS011;26324;52.040;11.528;2023-03-01T07:37:43;2.85;;;1.48;;
40621;SDS011;26324;52.040;11.528;2023-03-01T07:40:10;8.35;;;1.27;;
40621;SDS011;26324;52.040;11.528;2023-03-01T07:42:39;0.55;;;0.55;;
40621;SDS011;26324;52.040;11.528;2023-03-01T07:45:07;3.28;;;1.20;;
40621;SDS011;26324;52.040;11.528;2023-03-01T07:47:34;3.45;;;1.35;;
40621;SDS011;26324;52.040;11.528;2023-03-01T07:50:02;0.65;;;0.50;;
40621;SDS011;26324;52.040;11.528;2023-03-01T07:52:30;5.25;;;0.73;;
40621;SDS011;26324;52.040;11.528;2023-03-01T07:54:59;0.93;;;0.40;;
40621;SDS011;26324;52.040;11.528;2023-03-01T07:57:26;5.35;;;1.70;;
40621;SDS011;26324;52.040;11.528;2023-03-01T07:59:53;1.65;;;0.90;;
40621;SDS011;26324;52.040;11.528;2023-03-01T08:02:20;1.42;;;0.80;;
40621;SDS011;26324;52.040;11.528;2023-03-01T08:04:48;3.20;;;1.67;;
40621;SDS011;26324;52.040;11.528;2023-03-01T08:07:15;5.88;;;1.55;;
40621;SDS011;26324;52.040;11.528;2023-03-01T08:09:42;1.80;;;1.05;;
40621;SDS011;26324;52.040;11.528;2023-03-01T08:12:09;2.47;;;1.00;;
40621;SDS011;26324;52.040;11.528;2023-03-01T08:14:37;3.38;;;1.30;;
40621;SDS011;26324;52.040;11.528;2023-03-01T08:17:04;1.65;;;1.23;;
40621;SDS011;26324;52.040;11.528;2023-03-01T08:19:31;2.72;;;1.23;;
40621;SDS011;26324;52.040;11.528;2023-03-01T08:22:01;4.45;;;2.35;;
40621;SDS011;26324;52.040;11.528;2023-03-01T08:24:29;6.78;;;2.20;;
40621;SDS011;26324;52.040;11.528;2023-03-01T08:26:56;3.90;;;1.15;;
40621;SDS011;26324;52.040;11.528;2023-03-01T08:29:23;3.00;;;1.73;;
40621;SDS011;26324;52.040;11.528;2023-03-01T08:31:51;4.63;;;1.73;;
40621;SDS011;26324;52.040;11.528;2023-03-01T08:34:19;2.13;;;1.10;;
40621;SDS011;26324;52.040;11.528;2023-03-01T08:36:46;5.40;;;1.90;;
40621;SDS011;26324;52.040;11.528;2023-03-01T08:39:14;1.83;;;1.35;;
40621;SDS011;26324;52.040;11.528;2023-03-01T08:41:43;4.10;;;1.35;;
40621;SDS011;26324;52.040;11.528;2023-03-01T08:44:14;1.73;;;0.85;;
40621;SDS011;26324;52.040;11.528;2023-03-01T08:46:43;3.95;;;1.58;;
40621;SDS011;26324;52.040;11.528;2023-03-01T08:49:16;2.70;;;1.27;;
40621;SDS011;26324;52.040;11.528;2023-03-01T08:51:45;3.60;;;1.10;;
40621;SDS011;26324;52.040;11.528;2023-03-01T08:54:15;4.20;;;2.13;;
40621;SDS011;26324;52.040;11.528;2023-03-01T08:56:44;3.08;;;1.88;;
40621;SDS011;26324;52.040;11.528;2023-03-01T08:59:12;2.20;;;1.10;;
40621;SDS011;26324;52.040;11.528;2023-03-01T09:01:41;3.15;;;1.30;;
40621;SDS011;26324;52.040;11.528;2023-03-01T09:04:10;4.57;;;1.92;;
40621;SDS011;26324;52.040;11.528;2023-03-01T09:06:38;3.40;;;1.77;;
40621;SDS011;26324;52.040;11.528;2023-03-01T09:09:06;5.55;;;1.75;;
40621;SDS011;26324;52.040;11.528;2023-03-01T09:11:39;4.35;;;1.70;;
40621;SDS011;26324;52.040;11.528;2023-03-01T09:14:06;5.28;;;1.45;;
40621;SDS011;26324;52.040;11.528;2023-03-01T09:16:33;5.88;;;3.03;;
40621;SDS011;26324;52.040;11.528;2023-03-01T09:19:03;4.03;;;1.98;;
40621;SDS011;26324;52.040;11.528;2023-03-01T09:21:31;2.83;;;1.60;;
40621;SDS011;26324;52.040;11.528;2023-03-01T09:24:15;4.18;;;2.00;;
40621;SDS011;26324;52.040;11.528;2023-03-01T09:26:43;7.72;;;2.10;;
40621;SDS011;26324;52.040;11.528;2023-03-01T09:29:14;4.07;;;1.55;;
40621;SDS011;26324;52.040;11.528;2023-03-01T09:31:42;4.78;;;2.10;;
40621;SDS011;26324;52.040;11.528;2023-03-01T09:34:10;4.68;;;2.22;;
40621;SDS011;26324;52.040;11.528;2023-03-01T09:36:37;3.17;;;1.92;;
40621;SDS011;26324;52.040;11.528;2023-03-01T09:39:05;5.53;;;2.17;;
40621;SDS011;26324;52.040;11.528;2023-03-01T09:44:18;3.97;;;2.35;;
40621;SDS011;26324;52.040;11.528;2023-03-01T09:47:09;5.15;;;1.80;;
40621;SDS011;26324;52.040;11.528;2023-03-01T09:49:42;4.38;;;2.45;;
40621;SDS011;26324;52.040;11.528;2023-03-01T09:54:57;4.03;;;2.20;;
40621;SDS011;26324;52.040;11.528;2023-03-01T09:57:36;8.60;;;2.67;;
40621;SDS011;26324;52.040;11.528;2023-03-01T10:03:26;5.28;;;1.90;;
40621;SDS011;26324;52.040;11.528;2023-03-01T10:06:06;3.20;;;1.55;;
40621;SDS011;26324;52.040;11.528;2023-03-01T10:08:58;4.03;;;2.15;;
40621;SDS011;26324;52.040;11.528;2023-03-01T10:11:49;4.97;;;2.38;;
40621;SDS011;26324;52.040;11.528;2023-03-01T10:16:58;5.60;;;2.13;;
40621;SDS011;26324;52.040;11.528;2023-03-01T10:19:34;4.57;;;1.73;;
40621;SDS011;26324;52.040;11.528;2023-03-01T10:22:13;4.50;;;1.83;;
40621;SDS011;26324;52.040;11.528;2023-03-01T10:24:42;4.30;;;1.80;;
40621;SDS011;26324;52.040;11.528;2023-03-01T10:27:34;3.70;;;1.60;;
40621;SDS011;26324;52.040;11.528;2023-03-01T10:30:10;3.30;;;1.75;;
40621;SDS011;26324;52.040;11.528;2023-03-01T10:32:57;4.53;;;1.95;;
40621;SDS011;26324;52.040;11.528;2023-03-01T10:35:28;4.40;;;1.92;;
40621;SDS011;26324;52.040;11.528;2023-03-01T10:38:02;3.95;;;1.73;;
40621;SDS011;26324;52.040;11.528;2023-03-01T10:40:31;3.22;;;1.42;;
40621;SDS011;26324;52.040;11.528;2023-03-01T10:43:00;4.53;;;2.05;;
40621;SDS011;26324;52.040;11.528;2023-03-01T10:45:36;4.93;;;1.90;;
40621;SDS011;26324;52.040;11.528;2023-03-01T10:50:35;4.88;;;1.50;;
40621;SDS011;26324;52.040;11.528;2023-03-01T10:56:03;4.05;;;1.90;;
40621;SDS011;26324;52.040;11.528;2023-03-01T10:58:36;6.38;;;1.80;;
40621;SDS011;26324;52.040;11.528;2023-03-01T11:01:06;4.32;;;1.65;;
40621;SDS011;26324;52.040;11.528;2023-03-01T11:06:34;4.82;;;1.52;;
40621;SDS011;26324;52.040;11.528;2023-03-01T11:09:25;5.53;;;2.00;;
40621;SDS011;26324;52.040;11.528;2023-03-01T11:11:57;4.82;;;2.22;;
40621;SDS011;26324;52.040;11.528;2023-03-01T11:14:29;5.25;;;2.15;;
40621;SDS011;26324;52.040;11.528;2023-03-01T11:17:15;5.72;;;1.80;;
40621;SDS011;26324;52.040;11.528;2023-03-01T11:22:49;6.13;;;2.05;;
40621;SDS011;26324;52.040;11.528;2023-03-01T11:25:24;3.80;;;2.00;;
40621;SDS011;26324;52.040;11.528;2023-03-01T11:27:54;5.55;;;2.70;;
40621;SDS011;26324;52.040;11.528;2023-03-01T11:30:26;4.10;;;1.85;;
40621;SDS011;26324;52.040;11.528;2023-03-01T11:33:03;4.63;;;1.77;;
40621;SDS011;26324;52.040;11.528;2023-03-01T11:35:36;5.22;;;1.83;;
40621;SDS011;26324;52.040;11.528;2023-03-01T11:38:25;4.35;;;1.60;;
40621;SDS011;26324;52.040;11.528;2023-03-01T11:40:55;5.65;;;2.10;;
40621;SDS011;26324;52.040;11.528;2023-03-01T11:43:33;4.15;;;1.67;;
40621;SDS011;26324;52.040;11.528;2023-03-01T12:00:25;5.07;;;1.95;;
40621;SDS011;26324;52.040;11.528;2023-03-01T12:08:42;5.03;;;1.90;;
40621;SDS011;26324;52.040;11.528;2023-03-01T12:25:39;5.32;;;1.77;;
40621;SDS011;26324;52.040;11.528;2023-03-01T12:28:17;4.55;;;1.70;;
40621;SDS011;26324;52.040;11.528;2023-03-01T12:30:52;5.28;;;1.73;;
40621;SDS011;26324;52.040;11.528;2023-03-01T12:39:15;3.20;;;1.83;;
40621;SDS011;26324;52.040;11.528;2023-03-01T12:48:31;2.97;;;1.70;;
40621;SDS011;26324;52.040;11.528;2023-03-01T12:50:51;3.70;;;1.83;;
40621;SDS011;26324;52.040;11.528;2023-03-01T12:53:22;2.90;;;1.90;;
40621;SDS011;26324;52.040;11.528;2023-03-01T12:55:53;4.95;;;2.30;;
40621;SDS011;26324;52.040;11.528;2023-03-01T12:58:35;2.72;;;1.70;;
40621;SDS011;26324;52.040;11.528;2023-03-01T13:01:42;4.18;;;1.65;;
40621;SDS011;26324;52.040;11.528;2023-03-01T13:07:29;4.50;;;1.58;;
40621;SDS011;26324;52.040;11.528;2023-03-01T13:15:25;4.10;;;1.75;;
40621;SDS011;26324;52.040;11.528;2023-03-01T13:17:55;3.60;;;2.35;;
40621;SDS011;26324;52.040;11.528;2023-03-01T13:23:11;4.32;;;1.70;;
40621;SDS011;26324;52.040;11.528;2023-03-01T13:30:59;3.63;;;1.98;;
40621;SDS011;26324;52.040;11.528;2023-03-01T13:35:56;5.55;;;2.10;;
40621;SDS011;26324;52.040;11.528;2023-03-01T13:38:38;3.90;;;1.85;;
40621;SDS011;26324;52.040;11.528;2023-03-01T13:41:15;3.30;;;2.05;;
40621;SDS011;26324;52.040;11.528;2023-03-01T13:43:44;4.22;;;2.10;;
40621;SDS011;26324;52.040;11.528;2023-03-01T13:46:18;3.67;;;2.08;;
40621;SDS011;26324;52.040;11.528;2023-03-01T13:48:55;3.28;;;1.60;;
40621;SDS011;26324;52.040;11.528;2023-03-01T13:51:25;4.85;;;2.05;;
40621;SDS011;26324;52.040;11.528;2023-03-01T13:53:54;6.57;;;1.95;;
40621;SDS011;26324;52.040;11.528;2023-03-01T13:59:06;3.40;;;2.10;;
40621;SDS011;26324;52.040;11.528;2023-03-01T14:01:44;5.03;;;2.22;;
40621;SDS011;26324;52.040;11.528;2023-03-01T14:10:03;5.88;;;2.22;;
40621;SDS011;26324;52.040;11.528;2023-03-01T14:15:42;3.85;;;2.10;;
40621;SDS011;26324;52.040;11.528;2023-03-01T14:18:44;3.83;;;1.92;;
40621;SDS011;26324;52.040;11.528;2023-03-01T14:21:20;3.08;;;2.17;;
40621;SDS011;26324;52.040;11.528;2023-03-01T14:23:49;3.70;;;2.20;;
40621;SDS011;26324;52.040;11.528;2023-03-01T14:26:19;3.63;;;1.83;;
40621;SDS011;26324;52.040;11.528;2023-03-01T14:28:49;2.33;;;1.67;;
40621;SDS011;26324;52.040;11.528;2023-03-01T14:34:19;3.58;;;2.20;;
40621;SDS011;26324;52.040;11.528;2023-03-01T14:36:48;2.78;;;1.50;;
40621;SDS011;26324;52.040;11.528;2023-03-01T14:39:17;4.68;;;2.25;;
40621;SDS011;26324;52.040;11.528;2023-03-01T14:41:46;4.80;;;2.75;;
40621;SDS011;26324;52.040;11.528;2023-03-01T14:44:22;3.17;;;1.80;;
40621;SDS011;26324;52.040;11.528;2023-03-01T14:46:52;7.75;;;3.33;;
40621;SDS011;26324;52.040;11.528;2023-03-01T14:49:23;2.60;;;1.55;;
40621;SDS011;26324;52.040;11.528;2023-03-01T14:51:57;3.05;;;1.73;;
40621;SDS011;26324;52.040;11.528;2023-03-01T14:54:38;2.85;;;1.75;;
40621;SDS011;26324;52.040;11.528;2023-03-01T14:57:12;9.40;;;2.97;;
40621;SDS011;26324;52.040;11.528;2023-03-01T14:59:43;3.45;;;1.88;;
40621;SDS011;26324;52.040;11.528;2023-03-01T15:02:15;3.85;;;2.15;;
40621;SDS011;26324;52.040;11.528;2023-03-01T15:07:14;3.80;;;2.03;;
40621;SDS011;26324;52.040;11.528;2023-03-01T15:09:43;3.00;;;1.73;;
40621;SDS011;26324;52.040;11.528;2023-03-01T15:14:55;3.08;;;2.13;;
40621;SDS011;26324;52.040;11.528;2023-03-01T15:17:33;3.75;;;2.22;;
40621;SDS011;26324;52.040;11.528;2023-03-01T15:20:04;3.70;;;1.73;;
40621;SDS011;26324;52.040;11.528;2023-03-01T15:22:34;2.85;;;1.70;;
40621;SDS011;26324;52.040;11.528;2023-03-01T15:25:02;3.28;;;1.45;;
40621;SDS011;26324;52.040;11.528;2023-03-01T15:27:29;3.92;;;2.10;;
40621;SDS011;26324;52.040;11.528;2023-03-01T15:29:58;3.80;;;2.00;;
40621;SDS011;26324;52.040;11.528;2023-03-01T15:32:28;2.80;;;1.60;;
40621;SDS011;26324;52.040;11.528;2023-03-01T15:35:32;4.38;;;1.73;;
40621;SDS011;26324;52.040;11.528;2023-03-01T15:38:28;3.60;;;1.83;;
40621;SDS011;26324;52.040;11.528;2023-03-01T15:41:00;3.25;;;1.73;;
40621;SDS011;26324;52.040;11.528;2023-03-01T15:43:36;3.42;;;2.20;;
40621;SDS011;26324;52.040;11.528;2023-03-01T15:46:11;3.60;;;2.00;;
40621;SDS011;26324;52.040;11.528;2023-03-01T15:48:47;2.63;;;1.65;;
40621;SDS011;26324;52.040;11.528;2023-03-01T15:51:21;3.47;;;1.83;;
40621;SDS011;26324;52.040;11.528;2023-03-01T15:53:54;4.72;;;2.28;;
40621;SDS011;26324;52.040;11.528;2023-03-01T15:56:24;3.05;;;2.10;;
40621;SDS011;26324;52.040;11.528;2023-03-01T15:58:52;3.20;;;1.73;;
40621;SDS011;26324;52.040;11.528;2023-03-01T16:01:19;3.58;;;2.03;;
40621;SDS011;26324;52.040;11.528;2023-03-01T16:03:47;2.92;;;1.45;;
40621;SDS011;26324;52.040;11.528;2023-03-01T16:06:15;3.28;;;1.60;;
40621;SDS011;26324;52.040;11.528;2023-03-01T16:08:42;3.00;;;1.80;;
40621;SDS011;26324;52.040;11.528;2023-03-01T16:11:19;3.63;;;1.80;;
40621;SDS011;26324;52.040;11.528;2023-03-01T16:13:47;2.90;;;1.67;;
40621;SDS011;26324;52.040;11.528;2023-03-01T16:16:15;5.45;;;2.20;;
40621;SDS011;26324;52.040;11.528;2023-03-01T16:18:44;4.13;;;1.60;;
40621;SDS011;26324;52.040;11.528;2023-03-01T16:21:17;6.28;;;1.80;;
40621;SDS011;26324;52.040;11.528;2023-03-01T16:23:51;2.83;;;1.75;;
40621;SDS011;26324;52.040;11.528;2023-03-01T16:26:19;2.35;;;1.30;;
40621;SDS011;26324;52.040;11.528;2023-03-01T16:28:47;2.28;;;1.10;;
40621;SDS011;26324;52.040;11.528;2023-03-01T16:31:18;2.53;;;1.20;;
40621;SDS011;26324;52.040;11.528;2023-03-01T16:33:47;3.25;;;1.30;;
40621;SDS011;26324;52.040;11.528;2023-03-01T16:36:17;2.42;;;1.20;;
40621;SDS011;26324;52.040;11.528;2023-03-01T16:38:46;2.33;;;1.10;;
40621;SDS011;26324;52.040;11.528;2023-03-01T16:41:18;2.35;;;1.15;;
40621;SDS011;26324;52.040;11.528;2023-03-01T16:43:47;3.63;;;1.10;;
40621;SDS011;26324;52.040;11.528;2023-03-01T16:46:16;4.63;;;1.13;;
40621;SDS011;26324;52.040;11.528;2023-03-01T16:48:53;2.78;;;0.88;;
40621;SDS011;26324;52.040;11.528;2023-03-01T16:51:21;1.63;;;0.93;;